createdAt,value
2022-11-28T00:00:31.891Z,0.00
2022-11-28T00:01:32.459Z,0.00
2022-11-28T00:02:33.162Z,0.00
2022-11-28T00:03:33.921Z,0.00
2022-11-28T00:04:34.576Z,0.00
2022-11-28T00:05:35.335Z,0.00
2022-11-28T00:06:35.970Z,0.00
2022-11-28T00:07:36.654Z,0.00
2022-11-28T00:08:37.457Z,0.00
2022-11-28T00:09:38.040Z,0.00
2022-11-28T00:10:38.611Z,0.00
2022-11-28T00:11:39.187Z,0.00
2022-11-28T00:12:39.779Z,0.00
2022-11-28T00:13:40.524Z,0.00
2022-11-28T00:14:41.411Z,0.00
2022-11-28T00:15:41.729Z,0.00
2022-11-28T00:16:42.324Z,0.00
2022-11-28T00:17:42.887Z,0.00
2022-11-28T00:18:43.652Z,0.00
2022-11-28T00:19:44.232Z,0.00
2022-11-28T00:20:44.826Z,0.00
2022-11-28T00:21:45.410Z,0.00
2022-11-28T00:22:45.996Z,0.00
2022-11-28T00:23:46.614Z,0.00
2022-11-28T00:24:47.185Z,0.00
2022-11-28T00:25:47.758Z,0.00
2022-11-28T00:26:48.330Z,0.00
2022-11-28T00:27:48.907Z,0.00
2022-11-28T00:28:49.638Z,0.00
2022-11-28T00:29:50.219Z,0.00
2022-11-28T00:30:50.805Z,0.00
2022-11-28T00:31:51.454Z,0.00
2022-11-28T00:32:52.029Z,0.00
2022-11-28T00:33:52.633Z,0.00
2022-11-28T00:34:53.205Z,0.00
2022-11-28T00:35:53.778Z,0.00
2022-11-28T00:36:54.358Z,0.00
2022-11-28T00:37:54.939Z,0.00
2022-11-28T00:38:55.631Z,0.00
2022-11-28T00:39:56.207Z,0.00
2022-11-28T00:40:56.802Z,0.00
2022-11-28T00:41:57.394Z,0.00
2022-11-28T00:42:57.961Z,0.00
2022-11-28T00:43:58.740Z,0.00
2022-11-28T00:44:59.329Z,0.00
2022-11-28T00:45:59.988Z,0.00
2022-11-28T00:47:00.683Z,0.00
2022-11-28T00:48:01.253Z,0.00
2022-11-28T00:49:01.897Z,0.00
2022-11-28T00:50:02.474Z,0.00
2022-11-28T00:51:03.057Z,0.00
2022-11-28T00:52:03.642Z,0.00
2022-11-28T00:53:04.214Z,0.00
2022-11-28T00:54:04.892Z,0.00
2022-11-28T00:55:05.475Z,0.00
2022-11-28T00:56:06.048Z,0.00
2022-11-28T00:57:06.611Z,0.00
2022-11-28T00:58:07.186Z,0.00
2022-11-28T00:59:07.896Z,0.00
2022-11-28T01:00:08.473Z,0.00
2022-11-28T01:01:09.096Z,0.00
2022-11-28T01:02:09.805Z,0.00
2022-11-28T01:03:10.431Z,0.00
2022-11-28T01:04:11.037Z,0.00
2022-11-28T01:05:11.620Z,0.00
2022-11-28T01:06:12.192Z,0.00
2022-11-28T01:07:12.789Z,0.00
2022-11-28T01:08:13.386Z,0.00
2022-11-28T01:09:13.989Z,0.00
2022-11-28T01:10:14.576Z,0.00
2022-11-28T01:11:15.144Z,0.00
2022-11-28T01:12:15.722Z,0.00
2022-11-28T01:13:16.297Z,0.00
2022-11-28T01:14:17.057Z,0.00
2022-11-28T01:15:17.638Z,0.00
2022-11-28T01:16:18.298Z,0.00
2022-11-28T01:17:18.901Z,0.00
2022-11-28T01:18:19.472Z,0.00
2022-11-28T01:19:20.677Z,0.00
2022-11-28T01:20:20.754Z,0.00
2022-11-28T01:21:21.330Z,0.00
2022-11-28T01:22:21.911Z,0.00
2022-11-28T01:23:22.499Z,0.00
2022-11-28T01:24:23.141Z,0.00
2022-11-28T01:25:23.721Z,0.00
2022-11-28T01:26:24.296Z,0.00
2022-11-28T01:27:24.872Z,0.00
2022-11-28T01:28:25.436Z,0.00
2022-11-28T01:29:26.149Z,0.00
2022-11-28T01:30:26.727Z,0.00
2022-11-28T01:31:27.376Z,0.00
2022-11-28T01:32:27.967Z,0.00
2022-11-28T01:33:28.577Z,0.00
2022-11-28T01:34:29.193Z,0.00
2022-11-28T01:35:29.770Z,0.00
2022-11-28T01:36:30.341Z,0.00
2022-11-28T01:37:30.937Z,0.00
2022-11-28T01:38:31.515Z,0.00
2022-11-28T01:39:32.329Z,0.00
2022-11-28T01:40:32.899Z,0.00
2022-11-28T01:41:33.470Z,0.00
2022-11-28T01:42:34.051Z,0.00
2022-11-28T01:43:34.625Z,0.00
2022-11-28T01:44:35.292Z,0.00
2022-11-28T01:45:35.874Z,0.00
2022-11-28T01:46:36.519Z,0.00
2022-11-28T01:47:37.138Z,0.00
2022-11-28T01:48:37.720Z,0.00
2022-11-28T01:49:38.369Z,0.00
2022-11-28T01:50:38.946Z,0.00
2022-11-28T01:51:39.511Z,0.00
2022-11-28T01:52:40.079Z,0.00
2022-11-28T01:53:40.664Z,0.00
2022-11-28T01:54:41.718Z,0.00
2022-11-28T01:55:41.968Z,0.00
2022-11-28T01:56:42.555Z,0.00
2022-11-28T01:57:43.126Z,0.00
2022-11-28T01:58:43.684Z,0.00
2022-11-28T01:59:44.394Z,0.00
2022-11-28T02:00:44.996Z,0.00
2022-11-28T02:01:45.646Z,0.00
2022-11-28T02:02:46.232Z,0.00
2022-11-28T02:03:46.831Z,0.00
2022-11-28T02:04:47.432Z,0.00
2022-11-28T02:05:47.995Z,0.00
2022-11-28T02:06:48.569Z,0.00
2022-11-28T02:07:49.208Z,0.00
2022-11-28T02:08:49.825Z,0.00
2022-11-28T02:09:50.485Z,0.00
2022-11-28T02:10:51.043Z,0.00
2022-11-28T02:11:51.608Z,0.00
2022-11-28T02:12:52.171Z,0.00
2022-11-28T02:13:52.733Z,0.00
2022-11-28T02:14:53.526Z,0.00
2022-11-28T02:15:54.140Z,0.00
2022-11-28T02:16:54.762Z,0.00
2022-11-28T02:17:55.356Z,0.00
2022-11-28T02:18:55.966Z,0.00
2022-11-28T02:19:57.106Z,0.00
2022-11-28T02:20:57.184Z,0.00
2022-11-28T02:21:57.755Z,0.00
2022-11-28T02:22:58.340Z,0.00
2022-11-28T02:23:58.924Z,0.00
2022-11-28T02:24:59.533Z,0.00
2022-11-28T02:26:00.111Z,0.00
2022-11-28T02:27:00.683Z,0.00
2022-11-28T02:28:01.266Z,0.00
2022-11-28T02:29:01.843Z,0.00
2022-11-28T02:30:02.479Z,0.00
2022-11-28T02:31:03.106Z,0.00
2022-11-28T02:32:03.710Z,0.00
2022-11-28T02:33:04.301Z,0.00
2022-11-28T02:34:04.874Z,0.00
2022-11-28T02:35:05.469Z,0.00
2022-11-28T02:36:06.623Z,0.00
2022-11-28T02:37:06.694Z,0.00
2022-11-28T02:38:07.267Z,0.00
2022-11-28T02:39:07.843Z,0.00
2022-11-28T02:40:08.455Z,0.00
2022-11-28T02:41:09.024Z,0.00
2022-11-28T02:42:09.602Z,0.00
2022-11-28T02:43:10.174Z,0.00
2022-11-28T02:44:10.754Z,0.00
2022-11-28T02:45:11.510Z,0.00
2022-11-28T02:46:12.087Z,0.00
2022-11-28T02:47:12.708Z,0.00
2022-11-28T02:48:13.345Z,0.00
2022-11-28T02:49:13.958Z,0.00
2022-11-28T02:50:14.630Z,0.00
2022-11-28T02:51:15.297Z,0.00
2022-11-28T02:52:15.878Z,0.00
2022-11-28T02:53:16.458Z,0.00
2022-11-28T02:54:17.027Z,0.00
2022-11-28T02:55:17.631Z,0.00
2022-11-28T02:56:18.215Z,0.00
2022-11-28T02:57:18.791Z,0.00
2022-11-28T02:58:19.373Z,0.00
2022-11-28T02:59:19.952Z,0.00
2022-11-28T03:00:20.704Z,0.00
2022-11-28T03:01:21.356Z,0.00
2022-11-28T03:02:22.061Z,0.00
2022-11-28T03:03:22.688Z,0.00
2022-11-28T03:04:23.254Z,0.00
2022-11-28T03:05:23.934Z,0.00
2022-11-28T03:06:24.497Z,0.00
2022-11-28T03:07:25.162Z,0.00
2022-11-28T03:08:25.797Z,0.00
2022-11-28T03:09:26.372Z,0.00
2022-11-28T03:10:26.990Z,0.00
2022-11-28T03:11:27.553Z,0.00
2022-11-28T03:12:28.140Z,0.00
2022-11-28T03:13:28.714Z,0.00
2022-11-28T03:14:29.279Z,0.00
2022-11-28T03:15:30.081Z,0.00
2022-11-28T03:16:30.743Z,0.00
2022-11-28T03:17:31.401Z,0.00
2022-11-28T03:18:31.978Z,0.00
2022-11-28T03:19:32.560Z,0.00
2022-11-28T03:20:33.324Z,0.00
2022-11-28T03:21:33.904Z,0.00
2022-11-28T03:22:34.482Z,0.00
2022-11-28T03:23:35.062Z,0.00
2022-11-28T03:24:35.649Z,0.00
2022-11-28T03:25:36.307Z,0.00
2022-11-28T03:26:36.895Z,0.00
2022-11-28T03:27:37.462Z,0.00
2022-11-28T03:28:43.233Z,0.00
2022-11-28T03:29:38.947Z,0.00
2022-11-28T03:30:39.789Z,0.00
2022-11-28T03:31:40.473Z,0.00
2022-11-28T03:32:41.095Z,0.00
2022-11-28T03:33:41.682Z,0.00
2022-11-28T03:34:42.570Z,0.00
2022-11-28T03:35:42.832Z,0.00
2022-11-28T03:36:43.413Z,0.00
2022-11-28T03:37:43.995Z,0.00
2022-11-28T03:38:44.580Z,0.00
2022-11-28T03:39:45.170Z,0.00
2022-11-28T03:40:45.785Z,0.00
2022-11-28T03:41:46.361Z,0.00
2022-11-28T03:42:46.931Z,0.00
2022-11-28T03:43:47.512Z,0.00
2022-11-28T03:44:48.111Z,0.00
2022-11-28T03:45:48.865Z,0.00
2022-11-28T03:46:49.523Z,0.00
2022-11-28T03:47:50.143Z,0.00
2022-11-28T03:48:50.723Z,0.00
2022-11-28T03:49:51.313Z,0.00
2022-11-28T03:50:51.987Z,0.00
2022-11-28T03:51:52.558Z,0.00
2022-11-28T03:52:53.138Z,0.00
2022-11-28T03:53:53.708Z,0.00
2022-11-28T03:54:54.276Z,0.00
2022-11-28T03:55:54.963Z,0.00
2022-11-28T03:56:55.588Z,0.00
2022-11-28T03:57:56.168Z,0.00
2022-11-28T03:58:56.731Z,0.00
2022-11-28T03:59:57.297Z,0.00
2022-11-28T04:00:58.045Z,0.00
2022-11-28T04:01:58.627Z,0.00
2022-11-28T04:02:59.276Z,0.00
2022-11-28T04:03:59.848Z,0.00
2022-11-28T04:05:00.417Z,0.00
2022-11-28T04:06:01.014Z,0.00
2022-11-28T04:07:01.578Z,0.00
2022-11-28T04:08:02.251Z,0.00
2022-11-28T04:09:02.888Z,0.00
2022-11-28T04:10:03.461Z,0.00
2022-11-28T04:11:04.735Z,0.00
2022-11-28T04:12:04.806Z,0.00
2022-11-28T04:13:05.395Z,0.00
2022-11-28T04:14:05.981Z,0.00
2022-11-28T04:15:06.566Z,0.00
2022-11-28T04:16:07.417Z,0.00
2022-11-28T04:17:07.999Z,0.00
2022-11-28T04:18:08.572Z,0.00
2022-11-28T04:19:09.164Z,0.00
2022-11-28T04:20:09.759Z,0.00
2022-11-28T04:21:10.896Z,0.00
2022-11-28T04:22:10.975Z,0.00
2022-11-28T04:23:11.558Z,0.00
2022-11-28T04:24:12.128Z,0.00
2022-11-28T04:25:12.718Z,0.00
2022-11-28T04:26:13.408Z,0.00
2022-11-28T04:27:13.991Z,0.00
2022-11-28T04:28:14.579Z,0.00
2022-11-28T04:29:15.170Z,0.00
2022-11-28T04:30:15.745Z,0.00
2022-11-28T04:31:16.534Z,0.00
2022-11-28T04:32:17.134Z,0.00
2022-11-28T04:33:17.700Z,0.00
2022-11-28T04:34:18.266Z,0.00
2022-11-28T04:35:18.841Z,0.00
2022-11-28T04:36:19.496Z,0.00
2022-11-28T04:37:20.068Z,0.00
2022-11-28T04:38:20.650Z,0.00
2022-11-28T04:39:21.230Z,0.00
2022-11-28T04:40:21.798Z,0.00
2022-11-28T04:41:22.401Z,0.00
2022-11-28T04:42:22.974Z,0.00
2022-11-28T04:43:23.546Z,0.00
2022-11-28T04:44:24.127Z,0.00
2022-11-28T04:45:24.936Z,0.00
2022-11-28T04:46:25.791Z,0.00
2022-11-28T04:47:26.382Z,0.00
2022-11-28T04:48:32.739Z,0.00
2022-11-28T04:49:27.870Z,0.00
2022-11-28T04:50:28.451Z,0.00
2022-11-28T04:51:29.137Z,0.00
2022-11-28T04:52:29.706Z,0.00
2022-11-28T04:53:30.272Z,0.00
2022-11-28T04:54:30.855Z,0.00
2022-11-28T04:55:31.435Z,0.00
2022-11-28T04:56:32.033Z,0.00
2022-11-28T04:57:32.599Z,0.00
2022-11-28T04:58:33.233Z,0.00
2022-11-28T04:59:33.808Z,0.00
2022-11-28T05:00:34.436Z,0.00
2022-11-28T05:01:36.225Z,0.00
2022-11-28T05:02:35.899Z,0.00
2022-11-28T05:03:41.200Z,0.00
2022-11-28T05:04:37.443Z,0.00
2022-11-28T05:05:38.031Z,0.00
2022-11-28T05:06:38.658Z,0.00
2022-11-28T05:07:39.322Z,0.00
2022-11-28T05:08:39.897Z,1.00
2022-11-28T05:09:40.479Z,0.00
2022-11-28T05:10:41.185Z,0.00
2022-11-28T05:11:41.918Z,0.00
2022-11-28T05:12:42.449Z,1.00
2022-11-28T05:13:43.033Z,0.00
2022-11-28T05:14:43.861Z,2.00
2022-11-28T05:15:44.532Z,1.00
2022-11-28T05:16:45.415Z,1.00
2022-11-28T05:17:46.006Z,2.00
2022-11-28T05:18:46.520Z,1.00
2022-11-28T05:19:47.040Z,1.00
2022-11-28T05:20:47.559Z,5.00
2022-11-28T05:21:48.225Z,5.00
2022-11-28T05:22:48.755Z,5.00
2022-11-28T05:23:49.282Z,5.00
2022-11-28T05:24:49.995Z,6.00
2022-11-28T05:25:50.664Z,9.00
2022-11-28T05:26:51.220Z,2.00
2022-11-28T05:27:51.730Z,2.00
2022-11-28T05:28:52.238Z,2.00
2022-11-28T05:29:52.850Z,8.00
2022-11-28T05:30:53.627Z,5.00
2022-11-28T05:31:54.448Z,2.00
2022-11-28T05:32:55.026Z,2.00
2022-11-28T05:33:55.539Z,2.00
2022-11-28T05:34:56.055Z,2.00
2022-11-28T05:35:56.572Z,2.00
2022-11-28T05:36:57.175Z,3.00
2022-11-28T05:37:57.700Z,3.00
2022-11-28T05:38:58.263Z,4.00
2022-11-28T05:39:58.785Z,3.00
2022-11-28T05:40:59.359Z,4.00
2022-11-28T05:41:59.996Z,4.00
2022-11-28T05:43:00.566Z,5.00
2022-11-28T05:44:01.084Z,5.00
2022-11-28T05:45:01.599Z,6.00
2022-11-28T05:46:02.180Z,7.00
2022-11-28T05:47:02.937Z,9.00
2022-11-28T05:48:03.449Z,11.00
2022-11-28T05:49:04.013Z,14.00
2022-11-28T05:50:07.752Z,20.00
2022-11-28T05:51:21.212Z,23.00
2022-11-28T05:52:06.131Z,25.00
2022-11-28T05:53:08.554Z,27.00
2022-11-28T05:54:07.662Z,29.00
2022-11-28T05:55:08.134Z,30.00
2022-11-28T05:56:10.129Z,32.00
2022-11-28T05:57:41.141Z,34.00
2022-11-28T05:58:27.605Z,36.00
2022-11-28T05:59:11.323Z,38.00
2022-11-28T06:00:15.926Z,40.00
2022-11-28T06:01:15.645Z,41.00
2022-11-28T06:02:13.947Z,43.00
2022-11-28T06:03:17.647Z,42.00
2022-11-28T06:04:14.839Z,43.00
2022-11-28T06:05:35.072Z,40.00
2022-11-28T06:06:17.087Z,44.00
2022-11-28T06:07:17.183Z,47.00
2022-11-28T06:08:17.786Z,52.00
2022-11-28T06:09:20.936Z,56.00
2022-11-28T06:10:19.751Z,58.00
2022-11-28T06:11:19.964Z,59.00
2022-11-28T06:12:21.450Z,60.00
2022-11-28T06:13:20.122Z,62.00
2022-11-28T06:18:06.672Z,91.00
2022-11-28T06:19:03.448Z,90.00
2022-11-28T06:20:02.553Z,85.00
2022-11-28T06:21:02.890Z,86.00
2022-11-28T06:22:03.583Z,108.00
2022-11-28T06:23:23.477Z,112.00
2022-11-28T06:25:54.617Z,87.00
2022-11-28T06:26:55.809Z,109.00
2022-11-28T06:28:01.042Z,101.00
2022-11-28T06:29:32.853Z,93.00
2022-11-28T06:31:57.152Z,83.00
2022-11-28T06:33:27.223Z,82.00
2022-11-28T06:35:48.069Z,74.00
2022-11-28T06:37:14.953Z,96.00
2022-11-28T06:37:45.349Z,65.00
2022-11-28T06:38:41.372Z,57.00
2022-11-28T06:40:02.825Z,72.00
2022-11-28T06:41:09.271Z,70.00
2022-11-28T06:41:45.782Z,70.00
2022-11-28T06:42:50.896Z,68.00
2022-11-28T06:45:34.082Z,74.00
2022-11-28T06:47:01.994Z,73.00
2022-11-28T06:49:42.252Z,78.00
2022-11-28T06:56:00.023Z,124.00
2022-11-28T06:56:50.068Z,96.00
2022-11-28T06:57:53.945Z,162.00
2022-11-28T06:58:52.208Z,259.00
2022-11-28T06:59:52.196Z,430.00
2022-11-28T07:00:52.700Z,317.00
2022-11-28T07:01:54.958Z,252.00
2022-11-28T07:02:54.128Z,443.00
2022-11-28T07:03:54.761Z,736.00
2022-11-28T07:04:55.390Z,153.00
2022-11-28T07:05:55.913Z,125.00
2022-11-28T07:06:56.477Z,141.00
2022-11-28T07:07:57.055Z,113.00
2022-11-28T07:08:57.651Z,117.00
2022-11-28T07:09:58.208Z,97.00
2022-11-28T07:10:58.724Z,94.00
2022-11-28T07:11:59.286Z,134.00
2022-11-28T07:13:04.932Z,99.00
2022-11-28T07:14:00.663Z,78.00
2022-11-28T07:15:01.182Z,91.00
2022-11-28T07:16:02.874Z,110.00
2022-11-28T07:17:03.972Z,230.00
2022-11-28T07:18:03.371Z,258.00
2022-11-28T07:19:04.134Z,173.00
2022-11-28T07:20:04.790Z,129.00
2022-11-28T07:21:05.325Z,104.00
2022-11-28T07:22:08.963Z,98.00
2022-11-28T07:23:06.387Z,89.00
2022-11-28T07:24:06.938Z,88.00
2022-11-28T07:25:08.328Z,77.00
2022-11-28T07:26:08.345Z,69.00
2022-11-28T07:27:09.130Z,70.00
2022-11-28T07:28:09.688Z,62.00
2022-11-28T07:29:10.223Z,54.00
2022-11-28T07:30:10.787Z,47.00
2022-11-28T07:31:11.338Z,48.00
2022-11-28T07:32:12.041Z,46.00
2022-11-28T07:33:12.716Z,52.00
2022-11-28T07:34:13.261Z,47.00
2022-11-28T07:35:13.899Z,53.00
2022-11-28T07:36:14.535Z,50.00
2022-11-28T07:37:15.228Z,54.00
2022-11-28T07:38:15.954Z,73.00
2022-11-28T07:39:16.549Z,77.00
2022-11-28T07:40:17.074Z,67.00
2022-11-28T07:41:17.614Z,59.00
2022-11-28T07:42:18.254Z,56.00
2022-11-28T07:43:18.778Z,54.00
2022-11-28T07:44:19.374Z,53.00
2022-11-28T07:45:19.957Z,50.00
2022-11-28T07:46:20.804Z,51.00
2022-11-28T07:47:21.367Z,49.00
2022-11-28T07:48:21.949Z,45.00
2022-11-28T07:49:22.588Z,44.00
2022-11-28T07:50:24.137Z,45.00
2022-11-28T07:51:24.630Z,42.00
2022-11-28T07:52:26.324Z,45.00
2022-11-28T07:53:24.950Z,40.00
2022-11-28T07:54:25.486Z,44.00
2022-11-28T07:55:26.027Z,38.00
2022-11-28T07:57:04.527Z,41.00
2022-11-28T07:57:30.107Z,48.00
2022-11-28T07:58:27.906Z,54.00
2022-11-28T07:59:28.569Z,73.00
2022-11-28T08:00:29.153Z,95.00
2022-11-28T08:01:29.684Z,111.00
2022-11-28T08:02:30.575Z,88.00
2022-11-28T08:03:31.212Z,67.00
2022-11-28T08:04:31.946Z,55.00
2022-11-28T08:05:32.858Z,63.00
2022-11-28T08:06:36.811Z,80.00
2022-11-28T08:07:44.348Z,87.00
2022-11-28T08:08:49.704Z,85.00
2022-11-28T08:09:42.635Z,77.00
2022-11-28T08:10:36.651Z,70.00
2022-11-28T08:11:37.217Z,58.00
2022-11-28T08:12:38.163Z,49.00
2022-11-28T08:13:42.699Z,38.00
2022-11-28T08:14:39.280Z,35.00
2022-11-28T08:15:39.892Z,40.00
2022-11-28T08:16:40.532Z,30.00
2022-11-28T08:17:41.193Z,24.00
2022-11-28T08:18:41.723Z,23.00
2022-11-28T08:19:42.271Z,22.00
2022-11-28T08:20:42.820Z,22.00
2022-11-28T08:21:43.467Z,26.00
2022-11-28T08:22:44.006Z,25.00
2022-11-28T08:23:44.536Z,20.00
2022-11-28T08:24:45.479Z,23.00
2022-11-28T08:25:45.741Z,22.00
2022-11-28T08:26:48.814Z,26.00
2022-11-28T08:27:46.855Z,36.00
2022-11-28T08:28:47.385Z,36.00
2022-11-28T08:29:51.879Z,19.00
2022-11-28T08:30:49.138Z,13.00
2022-11-28T08:31:49.532Z,18.00
2022-11-28T08:32:50.043Z,25.00
2022-11-28T08:33:50.580Z,35.00
2022-11-28T08:34:51.143Z,47.00
2022-11-28T08:35:52.065Z,63.00
2022-11-28T08:36:54.869Z,90.00
2022-11-28T08:38:01.843Z,97.00
2022-11-28T08:39:03.891Z,100.00
2022-11-28T08:39:54.979Z,101.00
2022-11-28T08:41:23.014Z,92.00
2022-11-28T08:41:56.186Z,96.00
2022-11-28T08:42:56.972Z,108.00
2022-11-28T08:43:58.042Z,117.00
2022-11-28T08:44:58.161Z,129.00
2022-11-28T08:45:58.737Z,137.00
2022-11-28T08:47:04.198Z,135.00
2022-11-28T08:48:04.247Z,127.00
2022-11-28T08:49:10.557Z,104.00
2022-11-28T08:50:04.975Z,172.00
2022-11-28T08:51:20.808Z,166.00
2022-11-28T08:52:37.654Z,166.00
2022-11-28T08:53:22.183Z,117.00
2022-11-28T08:54:21.694Z,114.00
2022-11-28T08:55:15.637Z,111.00
2022-11-28T08:56:10.404Z,103.00
2022-11-28T08:57:09.790Z,97.00
2022-11-28T08:58:07.720Z,90.00
2022-11-28T08:59:08.592Z,79.00
2022-11-28T09:00:08.763Z,66.00
2022-11-28T09:01:09.465Z,67.00
2022-11-28T09:02:10.143Z,62.00
2022-11-28T09:03:10.662Z,46.00
2022-11-28T09:04:11.332Z,42.00
2022-11-28T09:05:12.012Z,45.00
2022-11-28T09:06:12.664Z,48.00
2022-11-28T09:07:13.291Z,49.00
2022-11-28T09:08:13.886Z,49.00
2022-11-28T09:09:14.407Z,54.00
2022-11-28T09:10:14.935Z,52.00
2022-11-28T09:11:15.495Z,60.00
2022-11-28T09:12:16.017Z,70.00
2022-11-28T09:13:16.533Z,76.00
2022-11-28T09:14:17.487Z,87.00
2022-11-28T09:15:17.923Z,82.00
2022-11-28T09:16:18.757Z,51.00
2022-11-28T09:17:19.508Z,63.00
2022-11-28T09:18:20.383Z,100.00
2022-11-28T09:19:20.924Z,121.00
2022-11-28T09:20:21.472Z,140.00
2022-11-28T09:21:22.121Z,88.00
2022-11-28T09:22:22.692Z,59.00
2022-11-28T09:23:23.238Z,51.00
2022-11-28T09:24:23.771Z,53.00
2022-11-28T09:25:24.312Z,39.00
2022-11-28T09:26:24.893Z,36.00
2022-11-28T09:27:25.409Z,27.00
2022-11-28T09:28:25.944Z,22.00
2022-11-28T09:29:26.479Z,24.00
2022-11-28T09:30:26.995Z,27.00
2022-11-28T09:31:27.902Z,28.00
2022-11-28T09:32:28.514Z,32.00
2022-11-28T09:33:29.227Z,37.00
2022-11-28T09:34:29.822Z,37.00
2022-11-28T09:35:30.385Z,36.00
2022-11-28T09:36:31.160Z,33.00
2022-11-28T09:37:31.712Z,30.00
2022-11-28T09:38:32.237Z,27.00
2022-11-28T09:39:44.265Z,19.00
2022-11-28T09:40:33.617Z,16.00
2022-11-28T09:41:34.208Z,15.00
2022-11-28T09:42:35.022Z,15.00
2022-11-28T09:45:41.138Z,9.00
2022-11-28T09:46:43.306Z,9.00
2022-11-28T09:47:43.706Z,9.00
2022-11-28T09:48:44.625Z,9.00
2022-11-28T09:54:33.833Z,23.00
2022-11-28T09:55:03.581Z,19.00
2022-11-28T09:56:01.644Z,24.00
2022-11-28T09:57:02.342Z,23.00
2022-11-28T09:58:02.907Z,21.00
2022-11-28T09:59:04.226Z,23.00
2022-11-28T10:00:04.354Z,25.00
2022-11-28T10:01:04.878Z,32.00
2022-11-28T10:02:07.097Z,26.00
2022-11-28T10:03:16.754Z,29.00
2022-11-28T10:04:06.987Z,34.00
2022-11-28T10:05:07.646Z,30.00
2022-11-28T10:06:08.482Z,29.00
2022-11-28T10:07:09.827Z,33.00
2022-11-28T10:08:09.912Z,47.00
2022-11-28T10:09:10.414Z,51.00
2022-11-28T10:10:10.988Z,47.00
2022-11-28T10:11:11.529Z,46.00
2022-11-28T10:12:12.362Z,50.00
2022-11-28T10:13:13.126Z,50.00
2022-11-28T10:14:13.784Z,45.00
2022-11-28T10:15:14.831Z,45.00
2022-11-28T10:16:14.971Z,49.00
2022-11-28T10:17:15.781Z,48.00
2022-11-28T10:18:17.199Z,50.00
2022-11-28T10:19:46.219Z,49.00
2022-11-28T10:20:17.453Z,44.00
2022-11-28T10:21:18.663Z,47.00
2022-11-28T10:22:18.956Z,54.00
2022-11-28T10:23:19.752Z,57.00
2022-11-28T10:24:20.531Z,46.00
2022-11-28T10:25:21.362Z,37.00
2022-11-28T10:26:21.956Z,31.00
2022-11-28T10:27:26.748Z,30.00
2022-11-28T10:28:23.128Z,35.00
2022-11-28T10:29:24.100Z,40.00
2022-11-28T10:30:24.619Z,43.00
2022-11-28T10:31:28.852Z,48.00
2022-11-28T10:32:29.683Z,58.00
2022-11-28T10:33:27.903Z,59.00
2022-11-28T10:34:27.006Z,68.00
2022-11-28T10:35:28.696Z,75.00
2022-11-28T10:36:28.460Z,82.00
2022-11-28T10:37:29.079Z,81.00
2022-11-28T10:38:29.878Z,73.00
2022-11-28T10:39:30.401Z,73.00
2022-11-28T10:40:30.990Z,63.00
2022-11-28T10:41:31.521Z,58.00
2022-11-28T10:42:32.056Z,55.00
2022-11-28T10:43:32.683Z,51.00
2022-11-28T10:44:33.205Z,49.00
2022-11-28T10:45:33.757Z,45.00
2022-11-28T10:46:34.332Z,40.00
2022-11-28T10:47:34.876Z,39.00
2022-11-28T10:48:40.445Z,38.00
2022-11-28T10:49:36.282Z,41.00
2022-11-28T10:50:36.808Z,36.00
2022-11-28T10:51:37.333Z,39.00
2022-11-28T10:52:37.844Z,36.00
2022-11-28T10:53:38.572Z,37.00
2022-11-28T10:54:39.099Z,31.00
2022-11-28T10:55:39.658Z,32.00
2022-11-28T10:56:40.184Z,26.00
2022-11-28T10:57:40.696Z,39.00
2022-11-28T10:58:41.292Z,43.00
2022-11-28T10:59:42.265Z,36.00
2022-11-28T11:00:42.502Z,36.00
2022-11-28T11:01:47.367Z,32.00
2022-11-28T11:02:43.983Z,28.00
2022-11-28T11:03:44.311Z,28.00
2022-11-28T11:04:45.884Z,37.00
2022-11-28T11:05:46.448Z,43.00
2022-11-28T11:07:06.799Z,38.00
2022-11-28T11:07:47.859Z,37.00
2022-11-28T11:08:48.431Z,36.00
2022-11-28T11:09:48.963Z,35.00
2022-11-28T11:10:49.526Z,34.00
2022-11-28T11:11:50.057Z,36.00
2022-11-28T11:12:51.043Z,45.00
2022-11-28T11:13:56.102Z,46.00
2022-11-28T11:14:52.147Z,38.00
2022-11-28T11:15:52.765Z,30.00
2022-11-28T11:16:53.329Z,28.00
2022-11-28T11:17:53.906Z,27.00
2022-11-28T11:18:54.489Z,29.00
2022-11-28T11:19:55.079Z,32.00
2022-11-28T11:20:55.614Z,30.00
2022-11-28T11:21:56.150Z,26.00
2022-11-28T11:22:57.082Z,30.00
2022-11-28T11:23:57.892Z,25.00
2022-11-28T11:24:58.422Z,21.00
2022-11-28T11:25:59.521Z,16.00
2022-11-28T11:26:59.566Z,16.00
2022-11-28T11:28:10.309Z,15.00
2022-11-28T11:29:33.875Z,18.00
2022-11-28T11:30:03.358Z,17.00
2022-11-28T11:31:02.163Z,14.00
2022-11-28T11:32:02.814Z,14.00
2022-11-28T11:33:03.341Z,14.00
2022-11-28T11:34:03.935Z,13.00
2022-11-28T11:35:04.759Z,17.00
2022-11-28T11:36:05.297Z,16.00
2022-11-28T11:37:05.957Z,15.00
2022-11-28T11:38:06.517Z,14.00
2022-11-28T11:39:07.094Z,19.00
2022-11-28T11:40:07.629Z,21.00
2022-11-28T11:41:08.162Z,30.00
2022-11-28T11:42:08.685Z,28.00
2022-11-28T11:43:09.215Z,21.00
2022-11-28T11:44:09.770Z,25.00
2022-11-28T11:45:14.561Z,19.00
2022-11-28T11:46:11.236Z,21.00
2022-11-28T11:47:11.854Z,22.00
2022-11-28T11:48:12.378Z,21.00
2022-11-28T11:49:12.941Z,19.00
2022-11-28T11:50:13.473Z,20.00
2022-11-28T11:51:14.085Z,20.00
2022-11-28T11:52:14.541Z,19.00
2022-11-28T11:53:15.057Z,26.00
2022-11-28T11:54:15.609Z,23.00
2022-11-28T11:55:16.136Z,20.00
2022-11-28T11:56:17.134Z,22.00
2022-11-28T11:57:34.352Z,34.00
2022-11-28T11:58:18.141Z,24.00
2022-11-28T11:59:19.225Z,15.00
2022-11-28T12:00:19.352Z,19.00
2022-11-28T12:01:23.085Z,23.00
2022-11-28T12:02:22.605Z,23.00
2022-11-28T12:03:21.551Z,20.00
2022-11-28T12:04:44.650Z,20.00
2022-11-28T12:05:23.005Z,20.00
2022-11-28T12:06:23.520Z,17.00
2022-11-28T12:07:24.131Z,20.00
2022-11-28T12:08:24.706Z,14.00
2022-11-28T12:09:25.257Z,12.00
2022-11-28T12:10:25.782Z,13.00
2022-11-28T12:11:26.335Z,18.00
2022-11-28T12:12:26.911Z,22.00
2022-11-28T12:13:27.475Z,23.00
2022-11-28T12:14:28.102Z,25.00
2022-11-28T12:15:28.607Z,29.00
2022-11-28T12:16:29.217Z,30.00
2022-11-28T12:17:48.423Z,33.00
2022-11-28T12:18:34.801Z,24.00
2022-11-28T12:19:31.178Z,21.00
2022-11-28T12:20:31.860Z,22.00
2022-11-28T12:21:32.370Z,23.00
2022-11-28T12:22:32.951Z,18.00
2022-11-28T12:23:33.481Z,25.00
2022-11-28T12:24:34.046Z,31.00
2022-11-28T12:25:34.568Z,34.00
2022-11-28T12:26:35.123Z,34.00
2022-11-28T12:27:35.662Z,29.00
2022-11-28T12:28:36.825Z,20.00
2022-11-28T12:29:41.004Z,17.00
2022-11-28T12:30:40.370Z,20.00
2022-11-28T12:31:38.494Z,33.00
2022-11-28T12:32:40.933Z,49.00
2022-11-28T12:33:39.619Z,56.00
2022-11-28T12:34:40.174Z,37.00
2022-11-28T12:35:40.727Z,27.00
2022-11-28T12:36:41.236Z,20.00
2022-11-28T12:38:09.796Z,25.00
2022-11-28T12:38:42.610Z,28.00
2022-11-28T12:39:43.639Z,24.00
2022-11-28T12:40:43.852Z,15.00
2022-11-28T12:41:44.428Z,17.00
2022-11-28T12:42:44.949Z,20.00
2022-11-28T12:43:45.477Z,25.00
2022-11-28T12:44:46.057Z,33.00
2022-11-28T12:45:46.595Z,39.00
2022-11-28T12:46:47.256Z,63.00
2022-11-28T12:47:47.786Z,74.00
2022-11-28T12:48:53.042Z,82.00
2022-11-28T12:49:49.190Z,82.00
2022-11-28T12:50:49.712Z,74.00
2022-11-28T12:51:50.241Z,52.00
2022-11-28T12:52:50.762Z,37.00
2022-11-28T12:53:51.271Z,30.00
2022-11-28T12:54:51.829Z,22.00
2022-11-28T12:55:54.338Z,15.00
2022-11-28T12:56:53.093Z,20.00
2022-11-28T12:57:53.626Z,18.00
2022-11-28T12:58:54.163Z,18.00
2022-11-28T12:59:54.727Z,20.00
2022-11-28T13:00:55.269Z,20.00
2022-11-28T13:01:55.896Z,17.00
2022-11-28T13:02:56.533Z,15.00
2022-11-28T13:03:57.075Z,16.00
2022-11-28T13:04:57.642Z,13.00
2022-11-28T13:05:58.169Z,13.00
2022-11-28T13:06:58.799Z,11.00
2022-11-28T13:07:59.379Z,9.00
2022-11-28T13:08:59.936Z,8.00
2022-11-28T13:10:00.538Z,12.00
2022-11-28T13:11:01.064Z,12.00
2022-11-28T13:12:01.656Z,14.00
2022-11-28T13:13:02.179Z,14.00
2022-11-28T13:14:02.704Z,9.00
2022-11-28T13:15:03.384Z,9.00
2022-11-28T13:16:03.962Z,10.00
2022-11-28T13:17:04.536Z,6.00
2022-11-28T13:18:05.082Z,4.00
2022-11-28T13:19:05.618Z,5.00
2022-11-28T13:20:06.203Z,5.00
2022-11-28T13:21:06.731Z,7.00
2022-11-28T13:22:07.250Z,8.00
2022-11-28T13:23:07.770Z,10.00
2022-11-28T13:24:08.300Z,8.00
2022-11-28T13:25:08.876Z,10.00
2022-11-28T13:26:09.437Z,10.00
2022-11-28T13:27:09.974Z,17.00
2022-11-28T13:28:10.500Z,13.00
2022-11-28T13:29:11.021Z,14.00
2022-11-28T13:30:11.631Z,15.00
2022-11-28T13:31:19.300Z,14.00
2022-11-28T13:32:13.025Z,15.00
2022-11-28T13:33:13.564Z,12.00
2022-11-28T13:34:14.091Z,17.00
2022-11-28T13:35:14.693Z,17.00